createdAt,value
2019-03-04T00:01:55.556Z,50.90
2019-03-04T00:05:00.725Z,51.00
2019-03-04T00:08:08.403Z,51.10
2019-03-04T00:11:14.416Z,51.20
2019-03-04T00:14:19.412Z,51.40
2019-03-04T00:17:24.340Z,51.40
2019-03-04T00:20:29.469Z,51.40
2019-03-04T00:23:34.389Z,51.50
2019-03-04T00:26:44.154Z,51.40
2019-03-04T00:29:49.071Z,51.60
2019-03-04T00:32:54.141Z,51.50
2019-03-04T00:35:59.074Z,51.60
2019-03-04T00:39:05.655Z,51.80
2019-03-04T00:42:10.540Z,51.80
2019-03-04T00:45:15.584Z,51.80
2019-03-04T00:48:25.703Z,51.90
2019-03-04T00:51:30.964Z,51.90
2019-03-04T00:54:36.048Z,52.10
2019-03-04T00:57:41.095Z,52.40
2019-03-04T01:00:46.177Z,52.50
2019-03-04T01:03:51.459Z,52.50
2019-03-04T01:06:56.588Z,52.50
2019-03-04T01:10:01.642Z,52.50
2019-03-04T01:13:06.346Z,52.50
2019-03-04T01:16:11.232Z,52.40
2019-03-04T01:19:16.289Z,52.60
2019-03-04T01:22:21.528Z,52.70
2019-03-04T01:25:26.658Z,52.80
2019-03-04T01:28:31.730Z,53.00
2019-03-04T01:31:36.953Z,53.20
2019-03-04T01:34:41.862Z,53.80
2019-03-04T01:37:47.011Z,53.60
2019-03-04T01:40:51.843Z,53.80
2019-03-04T01:43:56.785Z,53.80
2019-03-04T01:47:01.897Z,53.90
2019-03-04T01:50:07.398Z,53.70
2019-03-04T01:53:12.325Z,54.00
2019-03-04T01:56:17.528Z,54.00
2019-03-04T01:59:22.743Z,54.00
2019-03-04T02:02:27.807Z,54.10
2019-03-04T02:05:32.708Z,54.20
2019-03-04T02:08:37.658Z,54.20
2019-03-04T02:11:42.648Z,54.60
2019-03-04T02:14:47.788Z,54.50
2019-03-04T02:17:53.119Z,54.40
2019-03-04T02:20:58.096Z,54.50
2019-03-04T02:24:25.857Z,54.60
2019-03-04T02:27:31.110Z,54.40
2019-03-04T02:30:35.928Z,54.70
2019-03-04T02:33:41.206Z,55.80
2019-03-04T02:36:46.002Z,55.90
2019-03-04T02:39:51.032Z,56.20
2019-03-04T02:42:56.150Z,56.20
2019-03-04T02:46:10.950Z,56.20
2019-03-04T02:49:15.973Z,56.20
2019-03-04T02:52:20.968Z,56.50
2019-03-04T02:55:25.851Z,56.50
2019-03-04T02:58:30.982Z,56.70
2019-03-04T03:01:35.929Z,56.80
2019-03-04T03:04:40.903Z,56.90
2019-03-04T03:07:45.825Z,57.10
2019-03-04T03:10:50.883Z,57.00
2019-03-04T03:13:55.975Z,57.20
2019-03-04T03:17:00.982Z,57.10
2019-03-04T03:20:06.076Z,57.10
2019-03-04T03:23:11.131Z,57.20
2019-03-04T03:26:16.149Z,57.20
2019-03-04T03:29:21.112Z,57.30
2019-03-04T03:32:26.178Z,57.40
2019-03-04T03:35:31.285Z,57.20
2019-03-04T03:38:36.320Z,57.40
2019-03-04T03:41:41.428Z,57.30
2019-03-04T03:44:46.456Z,57.00
2019-03-04T03:47:51.424Z,57.00
2019-03-04T03:50:56.484Z,56.90
2019-03-04T03:54:01.572Z,56.90
2019-03-04T03:57:06.485Z,56.80
2019-03-04T04:00:30.339Z,56.70
2019-03-04T04:03:35.409Z,56.50
2019-03-04T04:06:40.592Z,56.70
2019-03-04T04:09:45.670Z,56.70
2019-03-04T04:12:50.910Z,56.80
2019-03-04T04:15:55.841Z,57.50
2019-03-04T04:19:00.655Z,56.80
2019-03-04T04:22:05.619Z,56.90
2019-03-04T04:25:12.059Z,56.80
2019-03-04T04:28:17.336Z,56.60
2019-03-04T04:31:22.251Z,56.70
2019-03-04T04:34:27.311Z,56.70
2019-03-04T04:37:42.970Z,56.50
2019-03-04T04:40:47.976Z,56.40
2019-03-04T04:43:52.971Z,56.40
2019-03-04T04:46:58.970Z,56.10
2019-03-04T04:50:05.230Z,56.20
2019-03-04T04:53:10.255Z,56.50
2019-03-04T04:56:16.776Z,56.70
2019-03-04T04:59:22.469Z,56.80
2019-03-04T05:02:27.667Z,57.00
2019-03-04T05:05:32.671Z,56.90
2019-03-04T05:08:38.272Z,57.00
2019-03-04T05:11:43.537Z,56.90
2019-03-04T05:14:49.580Z,57.20
2019-03-04T05:17:54.574Z,57.30
2019-03-04T05:20:59.563Z,57.50
2019-03-04T05:24:04.646Z,57.50
2019-03-04T05:27:09.846Z,57.80
2019-03-04T05:30:19.331Z,58.00
2019-03-04T05:33:24.444Z,58.20
2019-03-04T05:36:29.400Z,57.90
2019-03-04T05:39:34.284Z,58.00
2019-03-04T05:42:39.483Z,58.00
2019-03-04T05:45:44.399Z,58.00
2019-03-04T05:48:49.537Z,57.70
2019-03-04T05:51:54.544Z,57.60
2019-03-04T05:54:59.821Z,57.60
2019-03-04T05:58:04.767Z,57.40
2019-03-04T06:01:39.102Z,57.10
2019-03-04T06:04:45.898Z,57.00
2019-03-04T06:07:57.066Z,56.90
2019-03-04T06:11:02.153Z,56.90
2019-03-04T06:14:08.068Z,56.60
2019-03-04T06:17:12.960Z,56.30
2019-03-04T06:20:18.608Z,56.20
2019-03-04T06:23:23.757Z,55.90
2019-03-04T06:26:28.766Z,55.70
2019-03-04T06:29:33.929Z,56.00
2019-03-04T06:32:39.003Z,55.20
2019-03-04T06:35:44.216Z,55.30
2019-03-04T06:38:49.164Z,55.40
2019-03-04T06:41:55.040Z,54.50
2019-03-04T06:45:00.315Z,54.40
2019-03-04T06:48:05.165Z,54.40
2019-03-04T06:51:11.143Z,54.20
2019-03-04T06:54:42.867Z,54.00
2019-03-04T06:57:54.369Z,54.10
2019-03-04T07:01:19.407Z,54.00
2019-03-04T07:04:36.033Z,53.80
2019-03-04T07:07:41.182Z,53.30
2019-03-04T07:10:46.103Z,53.30
2019-03-04T07:13:50.994Z,52.80
2019-03-04T07:16:55.870Z,52.30
2019-03-04T07:20:07.108Z,51.60
2019-03-04T07:23:12.229Z,50.80
2019-03-04T07:26:17.170Z,49.70
2019-03-04T07:29:22.441Z,48.90
2019-03-04T07:32:27.427Z,48.20
2019-03-04T07:35:32.574Z,47.90
2019-03-04T07:38:55.651Z,47.50
2019-03-04T07:42:01.295Z,47.10
2019-03-04T07:45:08.019Z,46.40
2019-03-04T07:48:13.130Z,46.10
2019-03-04T07:51:18.746Z,45.70
2019-03-04T07:54:24.026Z,45.30
2019-03-04T07:57:28.947Z,44.50
2019-03-04T08:00:34.315Z,43.90
2019-03-04T08:03:39.337Z,43.50
2019-03-04T08:06:44.806Z,42.70
2019-03-04T08:10:09.776Z,41.10
2019-03-04T08:13:22.308Z,40.50
2019-03-04T08:16:27.330Z,40.00
2019-03-04T08:19:32.585Z,38.70
2019-03-04T08:22:37.549Z,38.80
2019-03-04T08:25:42.863Z,38.20
2019-03-04T08:28:47.965Z,37.10
2019-03-04T08:31:52.680Z,36.60
2019-03-04T08:34:57.418Z,35.30
2019-03-04T08:38:02.662Z,34.20
2019-03-04T08:41:07.650Z,33.20
2019-03-04T08:44:12.930Z,31.70
2019-03-04T08:47:18.234Z,30.80
2019-03-04T08:50:23.217Z,30.20
2019-03-04T08:53:28.321Z,30.00
2019-03-04T08:56:34.007Z,28.40
2019-03-04T08:59:39.221Z,27.70
2019-03-04T09:02:44.514Z,25.40
2019-03-04T09:05:49.555Z,23.20
2019-03-04T09:08:54.599Z,21.60
2019-03-04T09:11:59.731Z,18.90
2019-03-04T09:15:05.467Z,17.40
2019-03-04T09:18:10.693Z,15.90
2019-03-04T09:21:15.672Z,14.90
2019-03-04T09:24:20.753Z,15.40
2019-03-04T09:27:25.961Z,15.30
2019-03-04T09:30:31.153Z,14.50
2019-03-04T09:33:40.279Z,14.00
2019-03-04T09:36:45.307Z,14.00
2019-03-04T09:39:50.603Z,13.60
2019-03-04T09:42:55.460Z,13.20
2019-03-04T09:46:00.536Z,12.50
2019-03-04T09:49:05.599Z,12.00
2019-03-04T09:52:10.727Z,11.60
2019-03-04T09:55:16.184Z,11.50
2019-03-04T09:58:21.553Z,12.20
2019-03-04T10:01:44.392Z,11.40
2019-03-04T10:05:27.005Z,11.00
2019-03-04T10:08:42.421Z,10.50
2019-03-04T10:12:01.619Z,10.70
2019-03-04T10:15:30.462Z,10.50
2019-03-04T10:19:10.976Z,11.60
2019-03-04T10:22:31.318Z,12.30
2019-03-04T10:25:57.851Z,14.10
2019-03-04T10:29:45.228Z,15.50
2019-03-04T10:33:39.256Z,17.30
2019-03-04T10:37:28.028Z,18.70
2019-03-04T10:41:12.698Z,20.20
2019-03-04T10:44:40.854Z,20.80
2019-03-04T10:47:46.131Z,20.40
2019-03-04T10:50:51.129Z,20.20
2019-03-04T10:53:59.089Z,19.30
2019-03-04T10:57:02.807Z,19.30
2019-03-04T11:00:18.825Z,19.80
2019-03-04T11:03:23.841Z,20.20
2019-03-04T11:06:29.210Z,21.10
2019-03-04T11:09:36.573Z,21.60
2019-03-04T11:12:41.921Z,22.90
2019-03-04T11:15:46.874Z,23.40
2019-03-04T11:18:52.203Z,24.00
2019-03-04T11:21:57.449Z,24.70
2019-03-04T11:25:02.793Z,24.90
2019-03-04T11:28:07.747Z,25.10
2019-03-04T11:31:12.717Z,25.40
2019-03-04T11:34:17.929Z,25.50
2019-03-04T11:37:23.056Z,25.80
2019-03-04T11:40:39.667Z,26.30
2019-03-04T11:43:44.732Z,26.50
2019-03-04T11:46:49.671Z,26.40
2019-03-04T11:49:55.019Z,26.40
2019-03-04T11:52:59.823Z,26.80
2019-03-04T11:56:05.373Z,27.00
2019-03-04T11:59:10.595Z,27.00
2019-03-04T12:02:21.031Z,26.80
2019-03-04T12:05:26.079Z,26.40
2019-03-04T12:08:31.179Z,26.70
2019-03-04T12:11:38.439Z,27.60
2019-03-04T12:14:43.327Z,27.80
2019-03-04T12:17:48.321Z,27.70
2019-03-04T12:20:53.392Z,27.90
2019-03-04T12:23:58.494Z,27.50
2019-03-04T12:27:04.030Z,27.60
2019-03-04T12:30:13.036Z,27.80
2019-03-04T12:33:18.220Z,28.30
2019-03-04T12:36:23.449Z,28.50
2019-03-04T12:39:28.757Z,29.30
2019-03-04T12:42:33.750Z,29.60
2019-03-04T12:45:38.727Z,29.50
2019-03-04T12:48:43.666Z,29.70
2019-03-04T12:51:48.912Z,30.00
2019-03-04T12:54:53.977Z,29.90
2019-03-04T12:58:01.266Z,29.90
2019-03-04T13:01:06.556Z,30.10
2019-03-04T13:04:11.713Z,30.40
2019-03-04T13:07:16.811Z,31.40
2019-03-04T13:10:22.422Z,32.20
2019-03-04T13:13:27.269Z,32.70
2019-03-04T13:16:32.341Z,32.90
2019-03-04T13:19:37.585Z,32.60
2019-03-04T13:22:43.179Z,31.50
2019-03-04T13:25:53.711Z,30.90
2019-03-04T13:29:02.226Z,30.70
2019-03-04T13:32:07.394Z,30.70
2019-03-04T13:35:23.749Z,31.20
2019-03-04T13:38:20.507Z,30.90
2019-03-04T13:41:25.563Z,29.70
2019-03-04T13:44:30.572Z,28.60
2019-03-04T13:47:35.486Z,28.60
2019-03-04T13:50:42.780Z,26.20
2019-03-04T13:53:47.259Z,26.10
2019-03-04T13:56:52.229Z,24.50
2019-03-04T13:59:57.318Z,23.50
2019-03-04T14:03:03.226Z,23.00
2019-03-04T14:06:08.456Z,23.50
2019-03-04T14:09:16.142Z,24.60
2019-03-04T14:12:21.172Z,25.80
2019-03-04T14:15:29.074Z,26.50
2019-03-04T14:18:33.803Z,26.80
2019-03-04T14:21:38.703Z,26.60
2019-03-04T14:24:43.747Z,26.90
2019-03-04T14:27:48.775Z,26.70
2019-03-04T14:30:54.079Z,26.90
2019-03-04T14:33:59.041Z,26.80
2019-03-04T14:37:04.027Z,27.10
2019-03-04T14:40:10.103Z,27.80
2019-03-04T14:43:15.240Z,27.30
2019-03-04T14:46:24.106Z,27.50
2019-03-04T14:49:29.159Z,28.40
2019-03-04T14:52:34.119Z,28.70
2019-03-04T14:55:39.135Z,29.00
2019-03-04T14:58:44.102Z,29.30
2019-03-04T15:01:49.060Z,29.20
2019-03-04T15:04:54.345Z,29.30
2019-03-04T15:07:59.451Z,29.50
2019-03-04T15:11:04.630Z,29.60
2019-03-04T15:14:09.701Z,29.50
2019-03-04T15:17:31.180Z,29.80
2019-03-04T15:20:36.346Z,30.20
2019-03-04T15:23:41.444Z,30.70
2019-03-04T15:26:46.930Z,31.10
2019-03-04T15:29:53.081Z,31.10
2019-03-04T15:32:58.252Z,31.60
2019-03-04T15:36:03.138Z,32.20
2019-03-04T15:39:22.811Z,32.40
2019-03-04T15:42:25.705Z,32.60
2019-03-04T15:45:30.697Z,33.00
2019-03-04T15:48:35.652Z,33.00
2019-03-04T15:51:40.525Z,32.50
2019-03-04T15:54:45.555Z,32.70
2019-03-04T15:57:51.144Z,32.70
2019-03-04T16:00:56.196Z,32.50
2019-03-04T16:04:01.190Z,32.50
2019-03-04T16:07:12.778Z,32.70
2019-03-04T16:10:18.808Z,32.80
2019-03-04T16:13:23.793Z,33.20
2019-03-04T16:16:28.895Z,32.60
2019-03-04T16:19:34.561Z,32.80
2019-03-04T16:22:40.238Z,32.50
2019-03-04T16:25:45.309Z,32.30
2019-03-04T16:28:50.261Z,32.10
2019-03-04T16:31:57.863Z,32.30
2019-03-04T16:35:04.463Z,32.30
2019-03-04T16:38:09.378Z,32.10
2019-03-04T16:41:14.808Z,32.30
2019-03-04T16:44:19.801Z,32.50
2019-03-04T16:47:24.793Z,32.60
2019-03-04T16:50:29.844Z,33.00
2019-03-04T16:53:34.846Z,33.20
2019-03-04T16:56:40.075Z,33.40
2019-03-04T16:59:45.151Z,33.70
2019-03-04T17:02:50.575Z,34.00
2019-03-04T17:05:55.695Z,34.00
2019-03-04T17:09:00.421Z,34.30
2019-03-04T17:12:06.321Z,34.30
2019-03-04T17:15:13.835Z,34.40
2019-03-04T17:18:18.905Z,34.60
2019-03-04T17:21:24.428Z,34.70
2019-03-04T17:24:29.604Z,34.70
2019-03-04T17:27:34.707Z,34.90
2019-03-04T17:30:39.918Z,35.00
2019-03-04T17:33:45.708Z,35.10
2019-03-04T17:36:50.819Z,35.00
2019-03-04T17:39:55.893Z,34.90
2019-03-04T17:43:00.917Z,34.90
2019-03-04T17:46:06.379Z,35.00
2019-03-04T17:49:11.280Z,35.10
2019-03-04T17:52:16.222Z,35.30
2019-03-04T17:55:21.677Z,35.50
2019-03-04T17:58:26.862Z,35.70
2019-03-04T18:01:32.171Z,35.70
2019-03-04T18:04:39.862Z,35.80
2019-03-04T18:07:44.941Z,35.80
2019-03-04T18:10:50.301Z,35.80
2019-03-04T18:13:56.330Z,35.80
2019-03-04T18:17:03.246Z,35.80
2019-03-04T18:20:09.758Z,36.00
2019-03-04T18:23:15.032Z,36.00
2019-03-04T18:26:23.562Z,36.20
2019-03-04T18:30:00.337Z,36.60
2019-03-04T18:33:58.057Z,40.90
2019-03-04T18:37:13.309Z,38.90
2019-03-04T18:40:57.681Z,38.20
2019-03-04T18:44:30.473Z,37.10
2019-03-04T18:48:22.189Z,37.80
2019-03-04T18:51:37.745Z,39.90
2019-03-04T18:54:47.556Z,41.90
2019-03-04T18:57:52.731Z,43.50
2019-03-04T19:00:57.930Z,47.40
2019-03-04T19:04:03.068Z,49.20
2019-03-04T19:07:08.058Z,52.20
2019-03-04T19:10:13.699Z,54.50
2019-03-04T19:13:18.588Z,56.10
2019-03-04T19:16:23.740Z,57.50
2019-03-04T19:19:28.545Z,58.20
2019-03-04T19:22:34.552Z,58.40
2019-03-04T19:25:40.161Z,59.20
2019-03-04T19:28:45.166Z,59.50
2019-03-04T19:31:50.591Z,60.50
2019-03-04T19:34:55.482Z,59.70
2019-03-04T19:38:00.406Z,61.30
2019-03-04T19:41:05.779Z,59.60
2019-03-04T19:44:10.877Z,59.80
2019-03-04T19:47:18.696Z,60.50
2019-03-04T19:50:23.670Z,60.20
2019-03-04T19:53:28.746Z,59.50
2019-03-04T19:56:33.891Z,59.40
2019-03-04T19:59:39.085Z,57.70
2019-03-04T20:02:44.395Z,58.00
2019-03-04T20:05:50.482Z,58.10
2019-03-04T20:08:55.622Z,57.20
2019-03-04T20:12:00.732Z,57.80
2019-03-04T20:15:07.151Z,58.20
2019-03-04T20:18:12.346Z,56.20
2019-03-04T20:21:17.318Z,56.50
2019-03-04T20:24:22.526Z,56.60
2019-03-04T20:27:27.826Z,57.10
2019-03-04T20:30:33.153Z,55.90
2019-03-04T20:33:38.178Z,56.10
2019-03-04T20:36:43.517Z,57.70
2019-03-04T20:39:48.544Z,58.30
2019-03-04T20:42:55.114Z,58.20
2019-03-04T20:46:00.209Z,58.60
2019-03-04T20:49:05.265Z,58.70
2019-03-04T20:52:10.376Z,59.20
2019-03-04T20:55:16.073Z,59.20
2019-03-04T20:58:21.078Z,59.50
2019-03-04T21:01:26.762Z,60.40
2019-03-04T21:04:32.030Z,61.50
2019-03-04T21:07:37.212Z,64.10
2019-03-04T21:10:42.279Z,65.40
2019-03-04T21:13:47.310Z,65.40
2019-03-04T21:16:52.486Z,65.40
2019-03-04T21:19:57.651Z,66.90
2019-03-04T21:23:02.628Z,68.00
2019-03-04T21:26:35.102Z,69.20
2019-03-04T21:29:48.492Z,69.70
2019-03-04T21:33:28.024Z,70.40
2019-03-04T21:36:48.784Z,70.50
2019-03-04T21:39:53.893Z,70.10
2019-03-04T21:43:22.657Z,70.20
2019-03-04T21:46:46.687Z,69.90
2019-03-04T21:49:54.299Z,69.60
2019-03-04T21:53:15.471Z,69.80
2019-03-04T21:57:07.472Z,70.10
2019-03-04T22:00:17.140Z,71.00
2019-03-04T22:03:24.670Z,71.60
2019-03-04T22:06:29.944Z,71.60
2019-03-04T22:09:34.821Z,71.70
2019-03-04T22:12:40.008Z,71.60
2019-03-04T22:15:47.936Z,72.30
2019-03-04T22:18:54.000Z,72.80
2019-03-04T22:21:58.959Z,72.60
2019-03-04T22:25:03.998Z,72.90
2019-03-04T22:28:09.043Z,73.30
2019-03-04T22:31:14.243Z,73.40
2019-03-04T22:34:19.410Z,73.90
2019-03-04T22:37:24.340Z,73.60
2019-03-04T22:40:29.873Z,73.70
2019-03-04T22:43:35.127Z,73.70
2019-03-04T22:46:40.268Z,73.60
2019-03-04T22:49:47.385Z,74.00
2019-03-04T22:52:52.463Z,73.50
2019-03-04T22:55:57.799Z,73.30
2019-03-04T22:59:02.692Z,73.20
2019-03-04T23:02:09.824Z,73.40
2019-03-04T23:05:17.865Z,73.10
2019-03-04T23:08:23.009Z,73.10
2019-03-04T23:11:30.014Z,73.60
2019-03-04T23:14:35.006Z,74.00
2019-03-04T23:17:40.125Z,73.40
2019-03-04T23:20:47.255Z,72.90
2019-03-04T23:23:52.197Z,73.00
2019-03-04T23:26:57.053Z,73.10
2019-03-04T23:30:02.016Z,72.80
2019-03-04T23:33:07.144Z,72.90
2019-03-04T23:36:12.184Z,73.10
2019-03-04T23:39:17.153Z,73.00
2019-03-04T23:42:22.183Z,73.30
2019-03-04T23:45:27.360Z,73.60
2019-03-04T23:48:33.707Z,74.00
2019-03-04T23:51:38.688Z,74.20
2019-03-04T23:54:43.647Z,74.50
2019-03-04T23:57:48.604Z,74.60
